Britt, Iowa
Current Conditions -  °F | °C
As of 7:55 PM on Monday 24 Nov 2014 (Local Time) from KFXY Reporting Station
Light Snow Light Snow  
Wind Chill:   Ceiling: Unl
Heat Index: 18°   Visibility: 7mi
Dew Point: 14°   Wind: 16mph
Humidity: 86%   Direction: 310°NW
Pressure: 29.82"   Gusts: 24mph
Location:  43.1°N, 93.8°W
Report Text: KFXY 250155Z AUTO 31014G21KT 7SM -SN SCT015 SCT022 SCT026 M08/M10 A2982 RMK AO2
Loading
Personal Weather Stations






























Interactive Weather Map New forecast layout! Learn more

10-Day Weather Forecast

Advertisements
Track Severe Weather on mobile